Cincinnati, OH (45238)

4:44 PM EDT on August 27, 2015 (GMT -0400)
Delhi Township | | Change Station
CLOSE
Current Station
Personal Weather Station
Location: Cincinnati, OH
Elevation: 842 ft
Nearby Weather Stations

Elev 842 ft 39.10 °N, 84.63 °W | Updated 12 seconds ago

Mostly Cloudy
Mostly Cloudy
75.6 °F
Feels Like 78 °F
N
1.0
Wind Variable Wind from NNW
Gusts 3.0 mph

Today
High -- | Low -- °F
--% Chance of Precip.
Yesterday
High -- | Low -- °F
Precip. -- in
7:02 AM 8:16 PM
Waxing Gibbous, 95% visible
Pressure 30.12 in
Visibility 10.0 miles
Clouds Mostly Cloudy 5000 ft
Heat Index 78 °F
Dew Point 58 °F
Humidity 54%
Rainfall 0.00 in
Snow Depth Not available.
UV 4 out of 12
Pollen 10.30 out of 12
Air Quality Not available.
Flu Activity Not available.
METAR KCVG 271952Z 06008KT 10SM BKN050 23/12 A3014 RMK AO2 SLP200 T02330122
Pressure 30.12 in
Visibility 10.0 miles
Clouds Mostly Cloudy 5000 ft
Heat Index 78 °F
Dew Point 58 °F
Humidity 54%
Rainfall 0.00 in
Snow Depth Not available.
UV 4 out of 12
Pollen 10.30 out of 12
Air Quality Not available.
Flu Activity Not available.
METAR KCVG 271952Z 06008KT 10SM BKN050 23/12 A3014 RMK AO2 SLP200 T02330122

10-Day Weather Forecast

×

Almanac

Astronomy

Aug. 27, 2015 Rise Set
Actual Time
Civil Twilight
Nautical Twilight
Astronomical Twilight
Moon
Length of Visible Light
Length of Day
Tomorrow will be .
, % of the Moon is Illuminated

Today's Extremes

State Highs State Lows

Community

WunderPhotos

Upload Photos

1,850,212 photos uploaded!

WunderBlogs® & News

Nearby

Air Quality

  Air Quality AQ Index Pollutant
Not available.

Snow Depth

Station Depth Elevation

Earthquake Activity

City Distance Mag. Time & Date
Minimum magnitude displayed is 2.5.

Coastal Water Temperatures

Place Temperature

Stations

Nearby Weather Stations

Station Location Temp. Windchill Dew Point Humidity Wind Precip. Elev Updated Type